createdAt,value
2022-12-08T00:00:19.307Z,1.00
2022-12-08T00:02:52.869Z,1.00
2022-12-08T00:05:38.867Z,1.00
2022-12-08T00:08:30.742Z,1.00
2022-12-08T00:10:58.053Z,1.00
2022-12-08T00:13:25.811Z,1.00
2022-12-08T00:15:59.700Z,1.00
2022-12-08T00:18:26.731Z,1.00
2022-12-08T00:20:58.619Z,1.00
2022-12-08T00:23:32.885Z,1.00
2022-12-08T00:26:07.244Z,1.00
2022-12-08T00:28:42.473Z,1.00
2022-12-08T00:31:11.748Z,1.00
2022-12-08T00:33:40.090Z,1.00
2022-12-08T00:36:15.742Z,1.00
2022-12-08T00:38:45.011Z,1.00
2022-12-08T00:41:46.751Z,1.00
2022-12-08T00:44:23.807Z,1.00
2022-12-08T00:47:03.705Z,1.00
2022-12-08T00:51:58.290Z,1.00
2022-12-08T00:54:31.737Z,1.00
2022-12-08T00:56:58.748Z,1.00
2022-12-08T00:59:25.714Z,1.00
2022-12-08T01:01:59.914Z,1.00
2022-12-08T01:04:27.192Z,1.00
2022-12-08T01:06:54.258Z,99.90
2022-12-08T01:09:27.822Z,1.00
2022-12-08T01:11:54.782Z,1.00
2022-12-08T01:14:22.078Z,1.00
2022-12-08T01:16:55.844Z,1.00
2022-12-08T01:19:23.100Z,1.00
2022-12-08T01:21:50.257Z,1.00
2022-12-08T01:24:27.746Z,1.00
2022-12-08T01:26:54.862Z,1.00
2022-12-08T01:29:22.483Z,1.00
2022-12-08T01:31:55.733Z,1.00
2022-12-08T01:34:22.837Z,1.00
2022-12-08T01:36:50.207Z,1.00
2022-12-08T01:39:25.855Z,1.00
2022-12-08T01:41:53.034Z,1.00
2022-12-08T01:44:33.778Z,1.00
2022-12-08T01:47:07.448Z,1.00
2022-12-08T01:49:43.754Z,1.00
2022-12-08T01:52:21.758Z,1.00
2022-12-08T01:55:23.769Z,1.00
2022-12-08T01:58:01.764Z,1.00
2022-12-08T02:00:35.805Z,1.00
2022-12-08T02:03:09.139Z,1.00
2022-12-08T02:05:46.852Z,1.00
2022-12-08T02:08:14.572Z,1.00
2022-12-08T02:10:43.382Z,1.00
2022-12-08T02:13:22.857Z,1.00
2022-12-08T02:16:16.127Z,1.00
2022-12-08T02:20:07.810Z,1.00
2022-12-08T02:23:22.660Z,1.00
2022-12-08T02:26:47.731Z,1.00
2022-12-08T02:29:35.955Z,1.00
2022-12-08T02:32:11.759Z,1.00
2022-12-08T02:35:13.525Z,1.00
2022-12-08T02:38:14.759Z,1.00
2022-12-08T02:41:29.241Z,1.00
2022-12-08T02:44:28.745Z,1.00
2022-12-08T02:47:18.985Z,1.00
2022-12-08T02:49:52.750Z,1.00
2022-12-08T02:52:19.644Z,1.00
2022-12-08T02:55:04.760Z,1.00
2022-12-08T02:58:09.853Z,1.00
2022-12-08T03:01:06.767Z,1.00
2022-12-08T03:03:55.775Z,1.00
2022-12-08T03:07:02.758Z,1.00
2022-12-08T03:09:56.360Z,1.00
2022-12-08T03:12:50.898Z,1.00
2022-12-08T03:15:21.629Z,1.00
2022-12-08T03:18:04.060Z,1.00
2022-12-08T03:20:34.592Z,1.00
2022-12-08T03:23:15.706Z,1.00
2022-12-08T03:26:10.595Z,1.00
2022-12-08T03:28:44.721Z,1.00
2022-12-08T03:31:15.909Z,1.00
2022-12-08T03:33:54.779Z,1.00
2022-12-08T03:36:22.630Z,1.00
2022-12-08T03:38:54.321Z,1.00
2022-12-08T03:41:29.811Z,1.00
2022-12-08T03:43:59.649Z,1.00
2022-12-08T03:46:39.758Z,1.00
2022-12-08T03:49:06.803Z,1.00
2022-12-08T03:51:34.018Z,1.00
2022-12-08T03:54:07.801Z,1.00
2022-12-08T03:56:38.480Z,1.00
2022-12-08T03:59:07.318Z,1.00
2022-12-08T04:01:41.813Z,1.00
2022-12-08T04:04:08.996Z,1.00
2022-12-08T04:06:36.337Z,1.00
2022-12-08T04:09:10.716Z,1.00
2022-12-08T04:11:37.784Z,1.00
2022-12-08T04:14:04.899Z,1.00
2022-12-08T04:16:38.790Z,1.00
2022-12-08T04:19:06.382Z,1.00
2022-12-08T04:21:33.576Z,1.00
2022-12-08T04:24:08.808Z,1.00
2022-12-08T04:26:35.952Z,1.00
2022-12-08T04:29:03.107Z,1.00
2022-12-08T04:31:37.189Z,1.00
2022-12-08T04:34:04.537Z,1.00
2022-12-08T04:36:31.563Z,1.00
2022-12-08T04:39:04.730Z,1.00
2022-12-08T04:41:31.804Z,1.00
2022-12-08T04:43:58.849Z,1.00
2022-12-08T04:46:32.884Z,1.00
2022-12-08T04:48:59.982Z,1.00
2022-12-08T04:51:27.540Z,1.00
2022-12-08T04:54:00.794Z,1.00
2022-12-08T04:56:28.096Z,1.00
2022-12-08T04:58:55.401Z,1.00
2022-12-08T05:01:28.779Z,1.00
2022-12-08T05:03:55.854Z,1.00
2022-12-08T05:06:23.160Z,1.00
2022-12-08T05:08:56.857Z,1.00
2022-12-08T05:11:24.011Z,1.00
2022-12-08T05:13:51.268Z,1.00
2022-12-08T05:16:24.989Z,1.00
2022-12-08T05:18:52.005Z,1.00
2022-12-08T05:21:19.058Z,1.00
2022-12-08T05:23:52.770Z,1.00
2022-12-08T05:26:19.856Z,1.00
2022-12-08T05:28:47.014Z,1.00
2022-12-08T05:31:23.761Z,1.00
2022-12-08T05:33:52.542Z,1.00
2022-12-08T05:36:20.650Z,1.00
2022-12-08T05:38:54.831Z,1.00
2022-12-08T05:41:21.938Z,1.00
2022-12-08T05:43:49.514Z,1.00
2022-12-08T05:46:24.784Z,1.00
2022-12-08T05:48:51.886Z,1.00
2022-12-08T05:51:23.100Z,1.00
2022-12-08T05:53:58.844Z,1.00
2022-12-08T05:56:26.159Z,1.00
2022-12-08T05:58:53.233Z,1.00
2022-12-08T06:01:36.846Z,1.00
2022-12-08T06:04:05.493Z,1.00
2022-12-08T06:06:35.409Z,1.00
2022-12-08T06:09:11.806Z,1.00
2022-12-08T06:11:38.981Z,1.00
2022-12-08T06:14:12.354Z,1.00
2022-12-08T06:16:46.912Z,1.00
2022-12-08T06:19:14.134Z,1.00
2022-12-08T06:21:41.262Z,1.00
2022-12-08T06:24:14.880Z,1.00
2022-12-08T06:26:42.381Z,1.00
2022-12-08T06:29:09.817Z,1.00
2022-12-08T06:31:43.778Z,1.00
2022-12-08T06:34:10.861Z,1.00
2022-12-08T06:36:37.995Z,1.00
2022-12-08T06:39:11.809Z,1.00
2022-12-08T06:41:58.811Z,1.00
2022-12-08T06:44:33.073Z,99.90
2022-12-08T06:47:07.041Z,1.40
2022-12-08T06:49:40.814Z,99.90
2022-12-08T06:52:07.866Z,1.00
2022-12-08T06:54:35.056Z,99.90
2022-12-08T06:57:08.794Z,99.90
2022-12-08T06:59:36.442Z,99.90
2022-12-08T07:02:04.019Z,99.90
2022-12-08T07:04:37.781Z,99.90
2022-12-08T07:07:04.970Z,99.90
2022-12-08T07:09:32.074Z,99.90
2022-12-08T07:12:05.797Z,99.90
2022-12-08T07:14:32.930Z,99.90
2022-12-08T07:17:00.552Z,99.90
2022-12-08T07:19:33.810Z,99.90
2022-12-08T07:22:00.825Z,99.90
2022-12-08T07:24:27.833Z,99.90
2022-12-08T07:27:01.992Z,99.90
2022-12-08T07:29:28.928Z,99.90
2022-12-08T07:31:55.986Z,99.90
2022-12-08T07:34:29.843Z,99.90
2022-12-08T07:36:57.201Z,99.90
2022-12-08T07:39:24.417Z,99.90
2022-12-08T07:41:58.034Z,99.90
2022-12-08T07:44:25.179Z,99.90
2022-12-08T07:47:04.875Z,99.90
2022-12-08T07:49:32.034Z,99.90
2022-12-08T07:51:59.118Z,99.90
2022-12-08T07:54:34.808Z,99.90
2022-12-08T07:57:03.727Z,99.90
2022-12-08T07:59:30.862Z,99.90
2022-12-08T08:02:23.304Z,99.90
2022-12-08T08:04:51.900Z,99.90
2022-12-08T08:07:26.099Z,39.80
2022-12-08T08:09:53.204Z,1.00
2022-12-08T08:12:31.176Z,1.00
2022-12-08T08:15:07.941Z,1.00
2022-12-08T08:17:37.594Z,1.00
2022-12-08T08:20:14.793Z,1.00
2022-12-08T08:22:41.829Z,1.00
2022-12-08T08:25:09.377Z,99.90
2022-12-08T08:27:42.776Z,99.90
2022-12-08T08:30:19.628Z,99.90
2022-12-08T08:32:54.848Z,98.80
2022-12-08T08:35:21.897Z,44.70
2022-12-08T08:37:49.621Z,1.00
2022-12-08T08:40:24.875Z,1.00
2022-12-08T08:42:52.155Z,1.00
2022-12-08T08:45:33.189Z,99.90
2022-12-08T08:48:06.541Z,99.90
2022-12-08T08:50:39.807Z,1.00
2022-12-08T08:53:06.764Z,99.90
2022-12-08T08:55:33.712Z,99.90
2022-12-08T08:58:06.796Z,1.00
2022-12-08T09:00:33.834Z,1.00
2022-12-08T09:03:00.861Z,99.90
2022-12-08T09:05:34.818Z,99.90
2022-12-08T09:08:01.830Z,99.90
2022-12-08T09:10:29.022Z,99.90
2022-12-08T09:13:02.830Z,1.00
2022-12-08T09:15:30.008Z,45.60
2022-12-08T09:17:57.212Z,1.00
2022-12-08T09:20:30.864Z,1.00
2022-12-08T09:22:57.880Z,1.00
2022-12-08T09:25:24.868Z,1.00
2022-12-08T09:27:58.792Z,1.00
2022-12-08T09:30:25.970Z,99.90
2022-12-08T09:32:53.100Z,99.90
2022-12-08T09:35:26.901Z,1.00
2022-12-08T09:37:53.868Z,99.90
2022-12-08T09:40:24.122Z,99.90
2022-12-08T09:43:29.817Z,99.90
2022-12-08T09:46:04.980Z,99.90
2022-12-08T09:48:54.919Z,99.90
2022-12-08T09:51:30.571Z,99.90
2022-12-08T09:54:25.866Z,99.90
2022-12-08T09:59:41.796Z,99.90
2022-12-08T10:02:24.889Z,99.90
2022-12-08T10:05:01.903Z,99.90
2022-12-08T10:07:39.460Z,99.90
2022-12-08T10:10:43.809Z,99.90
2022-12-08T10:13:19.844Z,77.30
2022-12-08T10:16:28.007Z,1.00
2022-12-08T10:19:13.729Z,1.00
2022-12-08T10:21:47.830Z,99.90
2022-12-08T10:24:48.729Z,99.90
2022-12-08T10:27:22.873Z,99.90
2022-12-08T10:29:50.116Z,12.20
2022-12-08T10:32:31.826Z,1.00
2022-12-08T10:35:12.350Z,1.00
2022-12-08T10:37:46.843Z,1.00
2022-12-08T10:40:18.124Z,1.00
2022-12-08T10:42:59.822Z,1.00
2022-12-08T10:45:35.866Z,3.10
2022-12-08T10:48:27.892Z,19.90
2022-12-08T10:50:58.042Z,91.50
2022-12-08T10:53:37.842Z,99.90
2022-12-08T10:56:04.791Z,99.90
2022-12-08T10:58:48.831Z,99.90
2022-12-08T11:01:29.945Z,99.90
2022-12-08T11:04:21.842Z,99.90
2022-12-08T11:06:51.576Z,99.90
2022-12-08T11:09:18.690Z,99.90
2022-12-08T11:11:57.830Z,1.00
2022-12-08T11:14:45.977Z,1.00
2022-12-08T11:17:33.812Z,1.00
2022-12-08T11:20:19.691Z,1.00
2022-12-08T11:23:00.884Z,99.90
2022-12-08T11:25:34.951Z,99.90
2022-12-08T11:28:08.855Z,99.90
2022-12-08T11:30:44.109Z,99.90
2022-12-08T11:33:28.864Z,99.90
2022-12-08T11:36:07.555Z,99.90
2022-12-08T11:38:48.814Z,99.90
2022-12-08T11:41:21.843Z,1.00
2022-12-08T11:44:19.897Z,1.00
2022-12-08T11:46:59.945Z,1.00
2022-12-08T11:49:44.814Z,1.00
2022-12-08T11:52:27.464Z,99.90
2022-12-08T11:55:36.979Z,1.00
2022-12-08T11:58:32.333Z,1.00
2022-12-08T12:01:05.851Z,1.00
2022-12-08T12:03:46.984Z,1.00
2022-12-08T12:06:56.864Z,99.90
2022-12-08T12:10:15.563Z,1.00
2022-12-08T12:13:44.838Z,99.90
2022-12-08T12:16:23.586Z,1.00
2022-12-08T12:19:06.873Z,99.90
2022-12-08T12:21:50.408Z,1.00
2022-12-08T12:24:37.829Z,99.90
2022-12-08T12:27:39.221Z,99.90
2022-12-08T12:30:35.870Z,99.90
2022-12-08T12:33:11.970Z,99.90
2022-12-08T12:35:51.891Z,99.90
2022-12-08T12:39:01.602Z,99.90
2022-12-08T12:41:48.875Z,99.90
2022-12-08T12:44:15.798Z,99.90
2022-12-08T12:47:18.835Z,99.90
2022-12-08T12:49:46.202Z,99.90
2022-12-08T12:52:16.132Z,99.90
2022-12-08T12:54:51.805Z,99.90
2022-12-08T12:57:18.706Z,99.90
2022-12-08T13:00:05.559Z,99.90
2022-12-08T13:02:44.943Z,36.10
2022-12-08T13:05:48.687Z,35.80
2022-12-08T13:08:30.860Z,26.20
2022-12-08T13:11:11.931Z,1.00
2022-12-08T13:14:10.852Z,28.30
2022-12-08T13:16:40.020Z,68.20
2022-12-08T13:19:22.844Z,50.30
2022-12-08T13:21:49.872Z,99.90
2022-12-08T13:24:32.862Z,99.90
2022-12-08T13:27:06.023Z,99.90
2022-12-08T13:29:44.899Z,99.90
2022-12-08T13:32:11.747Z,99.90
2022-12-08T13:35:04.926Z,99.90
2022-12-08T13:37:54.561Z,99.90
2022-12-08T13:40:33.822Z,99.90
2022-12-08T13:43:47.368Z,99.90
2022-12-08T13:47:09.843Z,99.90
2022-12-08T13:56:59.507Z,99.90
2022-12-08T13:58:53.850Z,99.90
2022-12-08T14:01:24.253Z,99.90
2022-12-08T14:04:34.264Z,99.90
2022-12-08T14:07:12.315Z,99.90
2022-12-08T14:09:48.931Z,99.90
2022-12-08T14:12:28.557Z,99.90
2022-12-08T14:15:09.849Z,99.90
2022-12-08T14:17:40.203Z,1.00
2022-12-08T14:20:19.907Z,1.00
2022-12-08T14:22:48.714Z,1.00
2022-12-08T14:25:18.457Z,1.00
2022-12-08T14:27:52.882Z,1.00
2022-12-08T14:30:33.209Z,1.00
2022-12-08T14:33:09.879Z,1.00
2022-12-08T14:35:39.112Z,85.80
2022-12-08T14:38:23.987Z,99.90
2022-12-08T14:41:11.749Z,99.90
2022-12-08T14:43:47.916Z,99.90
2022-12-08T14:46:36.873Z,99.90
2022-12-08T14:49:10.871Z,99.90
2022-12-08T14:51:40.147Z,99.90
2022-12-08T14:54:21.982Z,99.90
2022-12-08T14:56:54.342Z,99.90
2022-12-08T14:59:36.834Z,99.90
2022-12-08T15:02:31.169Z,99.90
2022-12-08T15:05:24.975Z,99.90
2022-12-08T15:08:01.199Z,99.90
2022-12-08T15:10:38.874Z,99.90
2022-12-08T15:13:11.645Z,99.90
2022-12-08T15:15:54.148Z,99.90
2022-12-08T15:18:41.151Z,1.00
2022-12-08T15:21:19.891Z,1.00
2022-12-08T15:23:50.760Z,1.00
2022-12-08T15:26:30.860Z,1.00
2022-12-08T15:28:57.848Z,1.00
2022-12-08T15:31:24.854Z,1.00
2022-12-08T15:33:57.906Z,1.00
2022-12-08T15:36:24.916Z,99.90
2022-12-08T15:38:51.928Z,99.90
2022-12-08T15:41:26.282Z,99.90
2022-12-08T15:43:53.270Z,99.90
2022-12-08T15:46:40.967Z,99.90
2022-12-08T15:49:17.947Z,99.90
2022-12-08T15:51:55.693Z,99.90
2022-12-08T15:54:28.033Z,99.90
2022-12-08T15:57:19.559Z,99.90
2022-12-08T15:59:47.826Z,99.90
2022-12-08T16:02:25.048Z,99.90
2022-12-08T16:07:47.088Z,99.90
2022-12-08T16:10:22.137Z,99.90
2022-12-08T16:13:56.216Z,99.90
2022-12-08T16:16:13.884Z,99.90
2022-12-08T16:18:47.875Z,99.90
2022-12-08T16:21:40.193Z,1.00
2022-12-08T16:24:09.930Z,1.00
2022-12-08T16:27:50.592Z,1.00
2022-12-08T16:29:30.918Z,1.00
2022-12-08T16:31:57.953Z,1.00
2022-12-08T16:34:24.967Z,1.00
2022-12-08T16:36:58.907Z,1.00
2022-12-08T16:39:25.932Z,1.00
2022-12-08T16:42:17.880Z,1.00
2022-12-08T16:44:45.033Z,1.00
2022-12-08T16:47:24.903Z,1.00
2022-12-08T16:49:51.882Z,6.50
2022-12-08T16:52:18.948Z,47.80
2022-12-08T16:54:52.913Z,99.90
2022-12-08T16:57:19.970Z,99.90
2022-12-08T16:59:46.986Z,99.90
2022-12-08T17:02:20.907Z,1.00
2022-12-08T17:04:48.062Z,1.00
2022-12-08T17:07:15.204Z,1.00
2022-12-08T17:09:49.026Z,1.00
2022-12-08T17:12:16.207Z,1.00
2022-12-08T17:14:43.791Z,37.40
2022-12-08T17:17:17.978Z,99.90
2022-12-08T17:19:45.049Z,99.90
2022-12-08T17:22:12.018Z,99.90
2022-12-08T17:24:46.107Z,99.90
2022-12-08T17:27:13.335Z,99.90
2022-12-08T17:29:40.536Z,99.90
2022-12-08T17:32:13.944Z,99.90
2022-12-08T17:34:41.035Z,99.90
2022-12-08T17:37:08.120Z,1.00
2022-12-08T17:39:44.871Z,1.00
2022-12-08T17:42:11.904Z,1.00
2022-12-08T17:44:39.137Z,1.00
2022-12-08T17:47:13.004Z,1.00
2022-12-08T17:49:47.023Z,1.00
2022-12-08T17:52:20.918Z,1.00
2022-12-08T17:54:47.879Z,1.00
2022-12-08T17:57:14.938Z,1.00
2022-12-08T17:59:48.877Z,1.00
2022-12-08T18:02:16.074Z,16.70
2022-12-08T18:04:43.181Z,22.10
2022-12-08T18:07:16.960Z,85.70
2022-12-08T18:09:44.056Z,99.90
2022-12-08T18:12:11.164Z,99.90
2022-12-08T18:14:45.282Z,99.90
2022-12-08T18:17:12.718Z,99.90
2022-12-08T18:19:40.079Z,99.90
2022-12-08T18:22:14.138Z,99.90
2022-12-08T18:24:42.493Z,99.90
2022-12-08T18:27:09.608Z,99.90
2022-12-08T18:29:42.916Z,99.90
2022-12-08T18:32:10.003Z,99.90
2022-12-08T18:34:37.058Z,99.90
2022-12-08T18:37:10.935Z,99.90
2022-12-08T18:39:37.959Z,99.90
2022-12-08T18:42:28.916Z,99.90
2022-12-08T18:45:02.835Z,99.90
2022-12-08T18:47:46.920Z,99.90
2022-12-08T18:52:55.010Z,1.00
2022-12-08T18:57:50.017Z,1.00
2022-12-08T19:00:26.895Z,1.00
2022-12-08T19:02:54.184Z,1.00
2022-12-08T19:05:21.293Z,1.00
2022-12-08T19:07:56.057Z,1.00
2022-12-08T19:10:23.196Z,1.00
2022-12-08T19:12:52.640Z,1.00
2022-12-08T19:15:27.024Z,1.00
2022-12-08T19:17:54.176Z,1.00
2022-12-08T19:20:21.239Z,1.00
2022-12-08T19:22:54.918Z,1.00
2022-12-08T19:25:22.137Z,1.00
2022-12-08T19:27:49.689Z,1.00
2022-12-08T19:30:23.934Z,1.00
2022-12-08T19:32:54.019Z,1.00
2022-12-08T19:35:21.137Z,1.00
2022-12-08T19:37:55.020Z,1.00
2022-12-08T19:40:41.202Z,1.00
2022-12-08T19:43:44.010Z,1.00
2022-12-08T19:46:11.218Z,1.00
2022-12-08T19:48:50.920Z,1.00
2022-12-08T19:51:18.064Z,1.00
2022-12-08T19:56:21.894Z,1.00
2022-12-08T19:58:49.064Z,1.00
2022-12-08T20:01:16.837Z,1.00
2022-12-08T20:03:50.854Z,1.00
2022-12-08T20:06:19.240Z,1.00
2022-12-08T20:08:50.580Z,1.00
2022-12-08T20:11:24.883Z,1.00
2022-12-08T20:13:52.008Z,1.00
2022-12-08T20:16:19.372Z,1.00
2022-12-08T20:18:54.890Z,1.00
2022-12-08T20:21:22.362Z,1.00
2022-12-08T20:23:49.937Z,1.00
2022-12-08T20:26:30.483Z,1.00
2022-12-08T20:28:57.601Z,1.00
2022-12-08T20:31:35.160Z,1.00
2022-12-08T20:34:02.374Z,1.00
2022-12-08T20:36:30.098Z,1.00
2022-12-08T20:39:03.985Z,1.00
2022-12-08T20:41:34.840Z,1.00
2022-12-08T20:44:13.302Z,3.40
2022-12-08T20:46:49.649Z,46.30
2022-12-08T20:49:34.408Z,81.30
2022-12-08T20:52:02.002Z,99.90
2022-12-08T20:54:29.212Z,99.90
2022-12-08T20:57:03.919Z,99.90
2022-12-08T20:59:31.084Z,99.90
2022-12-08T21:02:00.398Z,99.90
2022-12-08T21:04:35.303Z,99.90
2022-12-08T21:07:02.786Z,99.90
2022-12-08T21:09:30.378Z,99.90
2022-12-08T21:12:04.058Z,99.90
2022-12-08T21:14:31.171Z,99.90
2022-12-08T21:16:58.529Z,99.90
2022-12-08T21:19:31.883Z,99.90
2022-12-08T21:21:58.976Z,99.90
2022-12-08T21:24:31.970Z,99.90
2022-12-08T21:27:08.157Z,99.90
2022-12-08T21:29:35.214Z,99.90
2022-12-08T21:32:02.416Z,99.90
2022-12-08T21:34:40.972Z,99.90
2022-12-08T21:37:08.344Z,99.90
2022-12-08T21:39:35.601Z,99.90
2022-12-08T21:42:33.735Z,99.90
2022-12-08T21:45:01.333Z,99.90
2022-12-08T21:47:41.952Z,94.30
2022-12-08T21:50:16.885Z,75.90
2022-12-08T21:52:53.000Z,52.30
2022-12-08T21:55:20.846Z,33.10
2022-12-08T21:57:47.923Z,16.30
2022-12-08T22:00:25.201Z,16.20
2022-12-08T22:02:52.944Z,16.00
2022-12-08T22:05:20.286Z,16.20
2022-12-08T22:07:54.169Z,27.20
2022-12-08T22:10:21.465Z,38.60
2022-12-08T22:12:49.107Z,33.20
2022-12-08T22:15:23.082Z,28.20
2022-12-08T22:17:50.425Z,10.60
2022-12-08T22:20:17.722Z,7.00
2022-12-08T22:22:51.961Z,15.90
2022-12-08T22:25:19.161Z,18.50
2022-12-08T22:27:46.320Z,35.20
2022-12-08T22:30:19.925Z,45.00
2022-12-08T22:32:47.253Z,56.90
2022-12-08T22:35:14.277Z,62.90
2022-12-08T22:37:48.080Z,75.50
2022-12-08T22:40:15.589Z,75.10
2022-12-08T22:42:42.649Z,77.80
2022-12-08T22:45:16.919Z,82.30
2022-12-08T22:47:50.243Z,90.00
2022-12-08T22:50:29.884Z,95.40
2022-12-08T22:52:56.991Z,93.70
2022-12-08T22:55:24.311Z,82.20
2022-12-08T22:57:58.164Z,74.60
2022-12-08T23:00:25.227Z,65.20
2022-12-08T23:02:52.254Z,64.90
2022-12-08T23:05:26.129Z,64.70
2022-12-08T23:07:53.312Z,56.20
2022-12-08T23:10:20.651Z,37.70
2022-12-08T23:12:56.810Z,33.70
2022-12-08T23:15:26.769Z,22.90
2022-12-08T23:17:54.019Z,16.20
2022-12-08T23:20:27.897Z,1.00
2022-12-08T23:22:55.228Z,1.00
2022-12-08T23:25:22.511Z,1.00
2022-12-08T23:28:08.904Z,1.00
2022-12-08T23:30:36.541Z,1.00
2022-12-08T23:33:04.845Z,1.00
2022-12-08T23:35:38.994Z,1.00
2022-12-08T23:38:06.212Z,1.00
2022-12-08T23:40:33.283Z,1.00
2022-12-08T23:43:07.089Z,1.00
2022-12-08T23:45:34.412Z,1.00
2022-12-08T23:48:21.960Z,1.00
2022-12-08T23:50:49.485Z,1.00
2022-12-08T23:53:17.478Z,1.00
2022-12-08T23:55:51.416Z,1.00
2022-12-08T23:58:18.547Z,1.00
